sensor_id;sensor_type;location;lat;lon;timestamp;temperature;humidity
43338;DHT22;28933;52.492;13.434;2024-02-21T00:02:03;10.70;99.90
43338;DHT22;28933;52.492;13.434;2024-02-21T00:04:50;10.70;99.90
43338;DHT22;28933;52.492;13.434;2024-02-21T00:07:35;10.80;99.90
43338;DHT22;28933;52.492;13.434;2024-02-21T00:10:21;10.80;99.90
43338;DHT22;28933;52.492;13.434;2024-02-21T00:13:07;10.70;99.90
43338;DHT22;28933;52.492;13.434;2024-02-21T00:15:54;10.70;99.90
43338;DHT22;28933;52.492;13.434;2024-02-21T00:18:40;10.70;99.90
43338;DHT22;28933;52.492;13.434;2024-02-21T00:21:25;10.70;99.90
43338;DHT22;28933;52.492;13.434;2024-02-21T00:24:11;10.70;99.90
43338;DHT22;28933;52.492;13.434;2024-02-21T00:26:57;10.80;99.90
43338;DHT22;28933;52.492;13.434;2024-02-21T00:29:43;10.70;99.90
43338;DHT22;28933;52.492;13.434;2024-02-21T00:32:29;10.80;99.90
43338;DHT22;28933;52.492;13.434;2024-02-21T00:35:15;10.70;99.90
43338;DHT22;28933;52.492;13.434;2024-02-21T00:38:01;10.80;99.90
43338;DHT22;28933;52.492;13.434;2024-02-21T00:40:48;10.80;99.90
43338;DHT22;28933;52.492;13.434;2024-02-21T00:43:34;10.80;99.90
43338;DHT22;28933;52.492;13.434;2024-02-21T00:46:20;10.80;99.90
43338;DHT22;28933;52.492;13.434;2024-02-21T00:49:06;10.80;99.90
43338;DHT22;28933;52.492;13.434;2024-02-21T00:51:52;10.80;99.90
43338;DHT22;28933;52.492;13.434;2024-02-21T00:54:38;10.80;99.90
43338;DHT22;28933;52.492;13.434;2024-02-21T00:57:24;10.80;99.90
43338;DHT22;28933;52.492;13.434;2024-02-21T01:00:11;10.70;99.90
43338;DHT22;28933;52.492;13.434;2024-02-21T01:02:57;10.80;99.90
43338;DHT22;28933;52.492;13.434;2024-02-21T01:05:43;10.80;99.90
43338;DHT22;28933;52.492;13.434;2024-02-21T01:08:29;10.80;99.90
43338;DHT22;28933;52.492;13.434;2024-02-21T01:11:15;10.80;99.90
43338;DHT22;28933;52.492;13.434;2024-02-21T01:14:01;10.80;99.90
43338;DHT22;28933;52.492;13.434;2024-02-21T01:16:47;10.80;99.90
43338;DHT22;28933;52.492;13.434;2024-02-21T01:19:33;10.80;99.90
43338;DHT22;28933;52.492;13.434;2024-02-21T01:22:19;10.80;99.90
43338;DHT22;28933;52.492;13.434;2024-02-21T01:25:05;10.80;99.90
43338;DHT22;28933;52.492;13.434;2024-02-21T01:27:51;10.80;99.90
43338;DHT22;28933;52.492;13.434;2024-02-21T01:30:37;10.80;99.90
43338;DHT22;28933;52.492;13.434;2024-02-21T01:33:23;10.80;99.90
43338;DHT22;28933;52.492;13.434;2024-02-21T01:36:09;10.80;99.90
43338;DHT22;28933;52.492;13.434;2024-02-21T01:38:55;10.80;99.90
43338;DHT22;28933;52.492;13.434;2024-02-21T01:41:41;10.80;99.90
43338;DHT22;28933;52.492;13.434;2024-02-21T01:44:27;10.80;99.90
43338;DHT22;28933;52.492;13.434;2024-02-21T01:47:13;10.80;99.90
43338;DHT22;28933;52.492;13.434;2024-02-21T01:50:00;10.80;99.90
43338;DHT22;28933;52.492;13.434;2024-02-21T01:52:49;10.80;99.90
43338;DHT22;28933;52.492;13.434;2024-02-21T01:55:35;10.90;99.90
43338;DHT22;28933;52.492;13.434;2024-02-21T01:58:22;10.80;99.90
43338;DHT22;28933;52.492;13.434;2024-02-21T02:01:09;10.80;99.90
43338;DHT22;28933;52.492;13.434;2024-02-21T02:03:56;10.80;99.90
43338;DHT22;28933;52.492;13.434;2024-02-21T02:06:42;10.90;99.90
43338;DHT22;28933;52.492;13.434;2024-02-21T02:09:29;10.90;99.90
43338;DHT22;28933;52.492;13.434;2024-02-21T02:12:15;10.80;99.90
43338;DHT22;28933;52.492;13.434;2024-02-21T02:15:02;10.90;99.90
43338;DHT22;28933;52.492;13.434;2024-02-21T02:17:50;10.90;99.90
43338;DHT22;28933;52.492;13.434;2024-02-21T02:20:36;10.90;99.90
43338;DHT22;28933;52.492;13.434;2024-02-21T02:23:30;10.90;99.90
43338;DHT22;28933;52.492;13.434;2024-02-21T02:26:17;10.90;99.90
43338;DHT22;28933;52.492;13.434;2024-02-21T02:29:03;10.90;99.90
43338;DHT22;28933;52.492;13.434;2024-02-21T02:31:49;10.90;99.90
43338;DHT22;28933;52.492;13.434;2024-02-21T02:34:35;10.90;99.90
43338;DHT22;28933;52.492;13.434;2024-02-21T02:37:21;10.90;99.90
43338;DHT22;28933;52.492;13.434;2024-02-21T02:40:07;10.80;99.90
43338;DHT22;28933;52.492;13.434;2024-02-21T02:42:53;10.80;99.90
43338;DHT22;28933;52.492;13.434;2024-02-21T02:45:40;10.80;99.90
43338;DHT22;28933;52.492;13.434;2024-02-21T02:48:26;10.80;99.90
43338;DHT22;28933;52.492;13.434;2024-02-21T02:51:12;10.80;99.90
43338;DHT22;28933;52.492;13.434;2024-02-21T02:53:58;10.80;99.90
43338;DHT22;28933;52.492;13.434;2024-02-21T02:56:44;10.80;99.90
43338;DHT22;28933;52.492;13.434;2024-02-21T02:59:30;10.80;99.90
43338;DHT22;28933;52.492;13.434;2024-02-21T03:02:16;10.80;99.90
43338;DHT22;28933;52.492;13.434;2024-02-21T03:05:15;10.70;99.90
43338;DHT22;28933;52.492;13.434;2024-02-21T03:08:01;10.70;99.90
43338;DHT22;28933;52.492;13.434;2024-02-21T03:10:47;10.70;99.90
43338;DHT22;28933;52.492;13.434;2024-02-21T03:13:32;10.70;99.90
43338;DHT22;28933;52.492;13.434;2024-02-21T03:16:18;10.70;99.90
43338;DHT22;28933;52.492;13.434;2024-02-21T03:19:04;10.60;99.90
43338;DHT22;28933;52.492;13.434;2024-02-21T03:21:51;10.60;99.90
43338;DHT22;28933;52.492;13.434;2024-02-21T03:24:37;10.60;99.90
43338;DHT22;28933;52.492;13.434;2024-02-21T03:27:23;10.60;99.90
43338;DHT22;28933;52.492;13.434;2024-02-21T03:30:09;10.60;99.90
43338;DHT22;28933;52.492;13.434;2024-02-21T03:32:55;10.60;99.90
43338;DHT22;28933;52.492;13.434;2024-02-21T03:35:41;10.60;99.90
43338;DHT22;28933;52.492;13.434;2024-02-21T03:38:27;10.60;99.90
43338;DHT22;28933;52.492;13.434;2024-02-21T03:41:13;10.60;99.90
43338;DHT22;28933;52.492;13.434;2024-02-21T03:43:59;10.50;99.90
43338;DHT22;28933;52.492;13.434;2024-02-21T03:46:44;10.50;99.90
43338;DHT22;28933;52.492;13.434;2024-02-21T03:49:30;10.50;99.90
43338;DHT22;28933;52.492;13.434;2024-02-21T03:52:16;10.50;99.90
43338;DHT22;28933;52.492;13.434;2024-02-21T03:55:02;10.50;99.90
43338;DHT22;28933;52.492;13.434;2024-02-21T03:57:49;10.50;99.90
43338;DHT22;28933;52.492;13.434;2024-02-21T04:00:35;10.50;99.90
43338;DHT22;28933;52.492;13.434;2024-02-21T04:03:21;10.40;99.90
43338;DHT22;28933;52.492;13.434;2024-02-21T04:06:07;10.40;99.90
43338;DHT22;28933;52.492;13.434;2024-02-21T04:08:53;10.40;99.90
43338;DHT22;28933;52.492;13.434;2024-02-21T04:11:39;10.40;99.90
43338;DHT22;28933;52.492;13.434;2024-02-21T04:14:25;10.40;99.90
43338;DHT22;28933;52.492;13.434;2024-02-21T04:17:11;10.40;99.90
43338;DHT22;28933;52.492;13.434;2024-02-21T04:20:03;10.40;99.90
43338;DHT22;28933;52.492;13.434;2024-02-21T04:22:54;10.40;99.90
43338;DHT22;28933;52.492;13.434;2024-02-21T04:25:40;10.40;99.90
43338;DHT22;28933;52.492;13.434;2024-02-21T04:28:26;10.40;99.90
43338;DHT22;28933;52.492;13.434;2024-02-21T04:31:11;10.30;99.90
43338;DHT22;28933;52.492;13.434;2024-02-21T04:33:57;10.30;99.90
43338;DHT22;28933;52.492;13.434;2024-02-21T04:36:43;10.30;99.90
43338;DHT22;28933;52.492;13.434;2024-02-21T04:39:29;10.30;99.90
43338;DHT22;28933;52.492;13.434;2024-02-21T04:42:15;10.30;99.90
43338;DHT22;28933;52.492;13.434;2024-02-21T04:45:01;10.30;99.90
43338;DHT22;28933;52.492;13.434;2024-02-21T04:47:47;10.30;99.90
43338;DHT22;28933;52.492;13.434;2024-02-21T04:50:33;10.30;99.90
43338;DHT22;28933;52.492;13.434;2024-02-21T04:53:19;10.20;99.90
43338;DHT22;28933;52.492;13.434;2024-02-21T04:56:05;10.20;99.90
43338;DHT22;28933;52.492;13.434;2024-02-21T04:58:51;10.20;99.90
43338;DHT22;28933;52.492;13.434;2024-02-21T05:01:37;10.20;99.90
43338;DHT22;28933;52.492;13.434;2024-02-21T05:04:23;10.20;99.90
43338;DHT22;28933;52.492;13.434;2024-02-21T05:07:09;10.20;99.90
43338;DHT22;28933;52.492;13.434;2024-02-21T05:09:56;10.20;99.90
43338;DHT22;28933;52.492;13.434;2024-02-21T05:12:42;10.20;99.90
43338;DHT22;28933;52.492;13.434;2024-02-21T05:15:28;10.20;99.90
43338;DHT22;28933;52.492;13.434;2024-02-21T05:18:14;10.20;99.90
43338;DHT22;28933;52.492;13.434;2024-02-21T05:21:01;10.30;99.90
43338;DHT22;28933;52.492;13.434;2024-02-21T05:23:47;10.30;99.90
43338;DHT22;28933;52.492;13.434;2024-02-21T05:26:33;10.30;99.90
43338;DHT22;28933;52.492;13.434;2024-02-21T05:29:19;10.30;99.90
43338;DHT22;28933;52.492;13.434;2024-02-21T05:32:05;10.30;99.90
43338;DHT22;28933;52.492;13.434;2024-02-21T05:34:51;10.30;99.90
43338;DHT22;28933;52.492;13.434;2024-02-21T05:37:37;10.30;99.90
43338;DHT22;28933;52.492;13.434;2024-02-21T05:40:23;10.30;99.90
43338;DHT22;28933;52.492;13.434;2024-02-21T05:43:09;10.30;99.90
43338;DHT22;28933;52.492;13.434;2024-02-21T05:45:55;10.30;99.90
43338;DHT22;28933;52.492;13.434;2024-02-21T05:48:41;10.30;99.90
43338;DHT22;28933;52.492;13.434;2024-02-21T05:51:27;10.30;99.90
43338;DHT22;28933;52.492;13.434;2024-02-21T05:54:13;10.30;99.90
43338;DHT22;28933;52.492;13.434;2024-02-21T05:56:59;10.30;99.90
43338;DHT22;28933;52.492;13.434;2024-02-21T05:59:45;10.30;99.90
43338;DHT22;28933;52.492;13.434;2024-02-21T06:02:31;10.30;99.90
43338;DHT22;28933;52.492;13.434;2024-02-21T06:05:17;10.30;99.90
43338;DHT22;28933;52.492;13.434;2024-02-21T06:08:03;10.30;99.90
43338;DHT22;28933;52.492;13.434;2024-02-21T06:10:49;10.30;99.90
43338;DHT22;28933;52.492;13.434;2024-02-21T06:13:40;10.30;99.90
43338;DHT22;28933;52.492;13.434;2024-02-21T06:16:26;10.30;99.90
43338;DHT22;28933;52.492;13.434;2024-02-21T06:19:12;10.30;99.90
43338;DHT22;28933;52.492;13.434;2024-02-21T06:21:58;10.30;99.90
43338;DHT22;28933;52.492;13.434;2024-02-21T06:24:44;10.30;99.90
43338;DHT22;28933;52.492;13.434;2024-02-21T06:27:30;10.30;99.90
43338;DHT22;28933;52.492;13.434;2024-02-21T06:30:16;10.30;99.90
43338;DHT22;28933;52.492;13.434;2024-02-21T06:33:02;10.30;99.90
43338;DHT22;28933;52.492;13.434;2024-02-21T06:35:48;10.30;99.90
43338;DHT22;28933;52.492;13.434;2024-02-21T06:38:34;10.30;99.90
43338;DHT22;28933;52.492;13.434;2024-02-21T06:41:20;10.30;99.90
43338;DHT22;28933;52.492;13.434;2024-02-21T06:44:06;10.30;99.90
43338;DHT22;28933;52.492;13.434;2024-02-21T06:46:52;10.30;99.90
43338;DHT22;28933;52.492;13.434;2024-02-21T06:49:40;10.30;99.90
43338;DHT22;28933;52.492;13.434;2024-02-21T06:52:27;10.30;99.90
43338;DHT22;28933;52.492;13.434;2024-02-21T06:55:13;10.30;99.90
43338;DHT22;28933;52.492;13.434;2024-02-21T06:57:59;10.30;99.90
43338;DHT22;28933;52.492;13.434;2024-02-21T07:00:45;10.30;99.90
43338;DHT22;28933;52.492;13.434;2024-02-21T07:03:31;10.30;99.90
43338;DHT22;28933;52.492;13.434;2024-02-21T07:06:17;10.30;99.90
43338;DHT22;28933;52.492;13.434;2024-02-21T07:09:02;10.40;99.90
43338;DHT22;28933;52.492;13.434;2024-02-21T07:11:48;10.40;99.90
43338;DHT22;28933;52.492;13.434;2024-02-21T07:14:36;10.40;99.90
43338;DHT22;28933;52.492;13.434;2024-02-21T07:17:22;10.40;99.90
43338;DHT22;28933;52.492;13.434;2024-02-21T07:20:08;10.40;99.90
43338;DHT22;28933;52.492;13.434;2024-02-21T07:22:54;10.40;99.90
43338;DHT22;28933;52.492;13.434;2024-02-21T07:25:40;10.40;99.90
43338;DHT22;28933;52.492;13.434;2024-02-21T07:28:26;10.40;99.90
43338;DHT22;28933;52.492;13.434;2024-02-21T07:31:12;10.50;99.90
43338;DHT22;28933;52.492;13.434;2024-02-21T07:33:58;10.50;99.90
43338;DHT22;28933;52.492;13.434;2024-02-21T07:36:44;10.50;99.90
43338;DHT22;28933;52.492;13.434;2024-02-21T07:39:31;10.50;99.90
43338;DHT22;28933;52.492;13.434;2024-02-21T07:42:17;10.50;99.90
43338;DHT22;28933;52.492;13.434;2024-02-21T07:45:03;10.50;99.90
43338;DHT22;28933;52.492;13.434;2024-02-21T07:47:49;10.50;99.90
43338;DHT22;28933;52.492;13.434;2024-02-21T07:50:35;10.50;99.90
43338;DHT22;28933;52.492;13.434;2024-02-21T07:53:21;10.60;99.90
43338;DHT22;28933;52.492;13.434;2024-02-21T07:56:07;10.50;99.90
43338;DHT22;28933;52.492;13.434;2024-02-21T07:58:53;10.50;99.90
43338;DHT22;28933;52.492;13.434;2024-02-21T08:01:39;10.50;99.90
43338;DHT22;28933;52.492;13.434;2024-02-21T08:04:25;10.60;99.90
43338;DHT22;28933;52.492;13.434;2024-02-21T08:07:11;10.60;99.90
43338;DHT22;28933;52.492;13.434;2024-02-21T08:09:57;10.60;99.90
43338;DHT22;28933;52.492;13.434;2024-02-21T08:12:43;10.70;99.90
43338;DHT22;28933;52.492;13.434;2024-02-21T08:15:29;10.70;99.90
43338;DHT22;28933;52.492;13.434;2024-02-21T08:18:15;10.70;99.90
43338;DHT22;28933;52.492;13.434;2024-02-21T08:21:01;10.80;99.90
43338;DHT22;28933;52.492;13.434;2024-02-21T08:23:47;10.80;99.90
43338;DHT22;28933;52.492;13.434;2024-02-21T08:26:40;10.80;99.90
43338;DHT22;28933;52.492;13.434;2024-02-21T08:29:26;10.90;99.90
43338;DHT22;28933;52.492;13.434;2024-02-21T08:32:12;10.90;99.90
43338;DHT22;28933;52.492;13.434;2024-02-21T08:34:58;10.90;99.90
43338;DHT22;28933;52.492;13.434;2024-02-21T08:37:45;10.90;99.90
43338;DHT22;28933;52.492;13.434;2024-02-21T08:40:33;11.00;99.90
43338;DHT22;28933;52.492;13.434;2024-02-21T08:43:20;11.10;99.90
43338;DHT22;28933;52.492;13.434;2024-02-21T08:46:06;11.10;99.90
43338;DHT22;28933;52.492;13.434;2024-02-21T08:48:53;11.10;99.90
43338;DHT22;28933;52.492;13.434;2024-02-21T08:51:39;11.20;99.90
43338;DHT22;28933;52.492;13.434;2024-02-21T08:54:25;11.20;99.90
43338;DHT22;28933;52.492;13.434;2024-02-21T08:57:11;11.30;99.90
43338;DHT22;28933;52.492;13.434;2024-02-21T08:59:59;11.30;99.90
43338;DHT22;28933;52.492;13.434;2024-02-21T09:02:45;11.40;99.90
43338;DHT22;28933;52.492;13.434;2024-02-21T09:05:31;11.40;99.90
43338;DHT22;28933;52.492;13.434;2024-02-21T09:08:17;11.50;99.90
43338;DHT22;28933;52.492;13.434;2024-02-21T09:11:06;11.50;99.90
43338;DHT22;28933;52.492;13.434;2024-02-21T09:13:52;11.60;99.90
43338;DHT22;28933;52.492;13.434;2024-02-21T09:16:38;11.60;99.90
43338;DHT22;28933;52.492;13.434;2024-02-21T09:19:23;11.60;99.90
43338;DHT22;28933;52.492;13.434;2024-02-21T09:22:09;11.70;99.90
43338;DHT22;28933;52.492;13.434;2024-02-21T09:24:55;11.70;99.90
43338;DHT22;28933;52.492;13.434;2024-02-21T09:27:44;11.80;99.90
43338;DHT22;28933;52.492;13.434;2024-02-21T09:30:30;11.80;99.90
43338;DHT22;28933;52.492;13.434;2024-02-21T09:33:16;11.80;99.90
43338;DHT22;28933;52.492;13.434;2024-02-21T09:36:03;11.90;99.90
43338;DHT22;28933;52.492;13.434;2024-02-21T09:38:51;12.00;99.90
43338;DHT22;28933;52.492;13.434;2024-02-21T09:41:42;12.00;99.90
43338;DHT22;28933;52.492;13.434;2024-02-21T09:44:36;12.10;99.90
43338;DHT22;28933;52.492;13.434;2024-02-21T09:47:40;12.10;99.90
43338;DHT22;28933;52.492;13.434;2024-02-21T09:50:27;12.20;99.90
43338;DHT22;28933;52.492;13.434;2024-02-21T09:53:14;12.20;99.90
43338;DHT22;28933;52.492;13.434;2024-02-21T09:56:00;12.30;99.90
43338;DHT22;28933;52.492;13.434;2024-02-21T09:58:47;12.40;99.90
43338;DHT22;28933;52.492;13.434;2024-02-21T10:01:33;12.40;99.90
43338;DHT22;28933;52.492;13.434;2024-02-21T10:04:20;12.50;99.90
43338;DHT22;28933;52.492;13.434;2024-02-21T10:07:06;12.60;99.90
43338;DHT22;28933;52.492;13.434;2024-02-21T10:10:03;12.60;99.90
43338;DHT22;28933;52.492;13.434;2024-02-21T10:12:50;12.60;99.90
43338;DHT22;28933;52.492;13.434;2024-02-21T10:15:36;12.70;99.90
43338;DHT22;28933;52.492;13.434;2024-02-21T10:18:22;12.70;99.90
43338;DHT22;28933;52.492;13.434;2024-02-21T10:21:08;12.70;99.90
43338;DHT22;28933;52.492;13.434;2024-02-21T10:23:54;12.70;99.90
43338;DHT22;28933;52.492;13.434;2024-02-21T10:26:40;12.70;99.90
43338;DHT22;28933;52.492;13.434;2024-02-21T10:29:26;12.80;99.90
43338;DHT22;28933;52.492;13.434;2024-02-21T10:32:13;12.80;99.90
43338;DHT22;28933;52.492;13.434;2024-02-21T10:35:03;12.90;99.90
43338;DHT22;28933;52.492;13.434;2024-02-21T10:37:52;12.80;99.90
43338;DHT22;28933;52.492;13.434;2024-02-21T10:40:41;12.80;99.90
43338;DHT22;28933;52.492;13.434;2024-02-21T10:43:27;12.90;99.90
43338;DHT22;28933;52.492;13.434;2024-02-21T10:46:21;13.00;99.90
43338;DHT22;28933;52.492;13.434;2024-02-21T10:49:11;12.90;99.90
43338;DHT22;28933;52.492;13.434;2024-02-21T10:52:14;13.00;99.90
43338;DHT22;28933;52.492;13.434;2024-02-21T10:55:05;13.00;99.90
43338;DHT22;28933;52.492;13.434;2024-02-21T10:57:55;13.00;99.90
43338;DHT22;28933;52.492;13.434;2024-02-21T11:00:43;13.10;99.90
43338;DHT22;28933;52.492;13.434;2024-02-21T11:03:29;13.10;99.90
43338;DHT22;28933;52.492;13.434;2024-02-21T11:06:17;13.10;99.90
43338;DHT22;28933;52.492;13.434;2024-02-21T11:09:08;13.10;99.90
43338;DHT22;28933;52.492;13.434;2024-02-21T11:11:54;13.10;99.90
43338;DHT22;28933;52.492;13.434;2024-02-21T11:14:41;13.10;99.90
43338;DHT22;28933;52.492;13.434;2024-02-21T11:17:28;13.20;99.90
43338;DHT22;28933;52.492;13.434;2024-02-21T11:20:14;13.20;99.90
43338;DHT22;28933;52.492;13.434;2024-02-21T11:23:01;13.20;99.90
43338;DHT22;28933;52.492;13.434;2024-02-21T11:25:47;13.30;99.90
43338;DHT22;28933;52.492;13.434;2024-02-21T11:28:33;13.30;99.90
43338;DHT22;28933;52.492;13.434;2024-02-21T11:31:19;13.30;99.90
43338;DHT22;28933;52.492;13.434;2024-02-21T11:34:05;13.40;99.90
43338;DHT22;28933;52.492;13.434;2024-02-21T11:36:52;13.40;99.90
43338;DHT22;28933;52.492;13.434;2024-02-21T11:39:38;13.50;99.90
43338;DHT22;28933;52.492;13.434;2024-02-21T11:42:28;13.50;99.90
43338;DHT22;28933;52.492;13.434;2024-02-21T11:45:15;13.50;99.90
43338;DHT22;28933;52.492;13.434;2024-02-21T11:48:02;13.60;99.90
43338;DHT22;28933;52.492;13.434;2024-02-21T11:50:53;13.60;99.60
43338;DHT22;28933;52.492;13.434;2024-02-21T11:53:40;13.60;99.50
43338;DHT22;28933;52.492;13.434;2024-02-21T11:56:26;13.60;99.40
43338;DHT22;28933;52.492;13.434;2024-02-21T11:59:12;13.70;99.30
43338;DHT22;28933;52.492;13.434;2024-02-21T12:01:59;13.70;99.20
43338;DHT22;28933;52.492;13.434;2024-02-21T12:04:46;13.70;99.10
43338;DHT22;28933;52.492;13.434;2024-02-21T12:07:33;13.70;99.10
43338;DHT22;28933;52.492;13.434;2024-02-21T12:10:19;13.70;99.00
43338;DHT22;28933;52.492;13.434;2024-02-21T12:13:09;13.70;98.90
43338;DHT22;28933;52.492;13.434;2024-02-21T12:15:55;13.70;98.90
43338;DHT22;28933;52.492;13.434;2024-02-21T12:18:41;13.80;99.00
43338;DHT22;28933;52.492;13.434;2024-02-21T12:21:30;13.80;98.80
43338;DHT22;28933;52.492;13.434;2024-02-21T12:24:22;13.90;98.70
43338;DHT22;28933;52.492;13.434;2024-02-21T12:27:08;13.90;98.70
43338;DHT22;28933;52.492;13.434;2024-02-21T12:29:54;14.00;98.70
43338;DHT22;28933;52.492;13.434;2024-02-21T12:32:40;14.10;98.60
43338;DHT22;28933;52.492;13.434;2024-02-21T12:35:27;14.10;98.50
43338;DHT22;28933;52.492;13.434;2024-02-21T12:38:13;14.20;98.50
43338;DHT22;28933;52.492;13.434;2024-02-21T12:40:59;14.20;98.40
43338;DHT22;28933;52.492;13.434;2024-02-21T12:43:46;14.20;98.30
43338;DHT22;28933;52.492;13.434;2024-02-21T12:46:33;14.20;98.20
43338;DHT22;28933;52.492;13.434;2024-02-21T12:49:19;14.20;98.10
43338;DHT22;28933;52.492;13.434;2024-02-21T12:52:05;14.20;98.10
43338;DHT22;28933;52.492;13.434;2024-02-21T12:54:51;14.20;98.00
43338;DHT22;28933;52.492;13.434;2024-02-21T15:13:03;14.10;96.30
43338;DHT22;28933;52.492;13.434;2024-02-21T15:15:49;14.10;96.30
43338;DHT22;28933;52.492;13.434;2024-02-21T15:18:37;14.10;96.30
43338;DHT22;28933;52.492;13.434;2024-02-21T15:21:24;14.10;96.30
43338;DHT22;28933;52.492;13.434;2024-02-21T15:45:44;14.30;95.30
43338;DHT22;28933;52.492;13.434;2024-02-21T15:48:31;14.10;95.40
43338;DHT22;28933;52.492;13.434;2024-02-21T15:51:21;14.00;95.50
43338;DHT22;28933;52.492;13.434;2024-02-21T15:54:08;13.80;95.60
43338;DHT22;28933;52.492;13.434;2024-02-21T15:56:54;13.70;95.60
43338;DHT22;28933;52.492;13.434;2024-02-21T15:59:42;13.60;95.70
43338;DHT22;28933;52.492;13.434;2024-02-21T16:02:27;13.50;95.80
43338;DHT22;28933;52.492;13.434;2024-02-21T16:05:13;13.40;95.90
43338;DHT22;28933;52.492;13.434;2024-02-21T16:07:59;13.30;96.00
43338;DHT22;28933;52.492;13.434;2024-02-21T16:10:46;13.20;96.00
43338;DHT22;28933;52.492;13.434;2024-02-21T16:13:32;13.20;96.10
43338;DHT22;28933;52.492;13.434;2024-02-21T16:16:18;13.10;96.10
43338;DHT22;28933;52.492;13.434;2024-02-21T16:19:04;13.00;96.10
43338;DHT22;28933;52.492;13.434;2024-02-21T16:21:50;13.00;96.20
43338;DHT22;28933;52.492;13.434;2024-02-21T16:24:36;12.90;96.20
43338;DHT22;28933;52.492;13.434;2024-02-21T16:27:22;12.70;96.30
43338;DHT22;28933;52.492;13.434;2024-02-21T16:30:08;12.70;96.40
43338;DHT22;28933;52.492;13.434;2024-02-21T16:32:55;12.60;96.40
43338;DHT22;28933;52.492;13.434;2024-02-21T16:35:41;12.50;96.40
43338;DHT22;28933;52.492;13.434;2024-02-21T16:38:27;12.40;96.50
43338;DHT22;28933;52.492;13.434;2024-02-21T16:41:13;12.40;96.60
43338;DHT22;28933;52.492;13.434;2024-02-21T16:43:59;12.20;96.60
43338;DHT22;28933;52.492;13.434;2024-02-21T16:46:45;12.20;96.60
43338;DHT22;28933;52.492;13.434;2024-02-21T16:49:31;12.10;96.70
43338;DHT22;28933;52.492;13.434;2024-02-21T16:52:17;12.10;96.80
43338;DHT22;28933;52.492;13.434;2024-02-21T16:55:05;12.10;96.80
43338;DHT22;28933;52.492;13.434;2024-02-21T16:57:51;11.90;96.90
43338;DHT22;28933;52.492;13.434;2024-02-21T17:00:37;11.90;96.90
43338;DHT22;28933;52.492;13.434;2024-02-21T17:03:24;11.80;96.90
43338;DHT22;28933;52.492;13.434;2024-02-21T17:06:12;11.80;96.90
43338;DHT22;28933;52.492;13.434;2024-02-21T17:08:59;11.70;97.00
43338;DHT22;28933;52.492;13.434;2024-02-21T17:11:46;11.70;97.00
43338;DHT22;28933;52.492;13.434;2024-02-21T17:14:33;11.60;97.00
43338;DHT22;28933;52.492;13.434;2024-02-21T17:17:19;11.50;97.10
43338;DHT22;28933;52.492;13.434;2024-02-21T17:20:05;11.50;97.30
43338;DHT22;28933;52.492;13.434;2024-02-21T17:22:51;11.40;97.20
43338;DHT22;28933;52.492;13.434;2024-02-21T17:25:37;11.40;97.20
43338;DHT22;28933;52.492;13.434;2024-02-21T17:28:23;11.40;97.30
43338;DHT22;28933;52.492;13.434;2024-02-21T17:31:10;11.30;97.30
43338;DHT22;28933;52.492;13.434;2024-02-21T17:33:56;11.30;97.30
43338;DHT22;28933;52.492;13.434;2024-02-21T17:36:42;11.30;97.40
43338;DHT22;28933;52.492;13.434;2024-02-21T17:39:27;11.20;97.40
43338;DHT22;28933;52.492;13.434;2024-02-21T17:42:13;11.20;97.40
43338;DHT22;28933;52.492;13.434;2024-02-21T17:44:59;11.10;97.50
43338;DHT22;28933;52.492;13.434;2024-02-21T17:47:45;11.10;97.60
43338;DHT22;28933;52.492;13.434;2024-02-21T17:50:32;11.00;97.70
43338;DHT22;28933;52.492;13.434;2024-02-21T17:53:18;11.00;97.80
43338;DHT22;28933;52.492;13.434;2024-02-21T17:56:04;11.00;97.80
43338;DHT22;28933;52.492;13.434;2024-02-21T17:58:50;10.90;97.80
43338;DHT22;28933;52.492;13.434;2024-02-21T18:01:36;10.90;97.90
43338;DHT22;28933;52.492;13.434;2024-02-21T18:04:23;10.90;97.90
43338;DHT22;28933;52.492;13.434;2024-02-21T18:07:09;10.90;98.00
43338;DHT22;28933;52.492;13.434;2024-02-21T18:09:55;10.80;98.00
43338;DHT22;28933;52.492;13.434;2024-02-21T18:12:41;10.80;98.10
43338;DHT22;28933;52.492;13.434;2024-02-21T18:15:27;10.80;98.10
43338;DHT22;28933;52.492;13.434;2024-02-21T18:18:13;10.80;98.10
43338;DHT22;28933;52.492;13.434;2024-02-21T18:20:59;10.70;98.20
43338;DHT22;28933;52.492;13.434;2024-02-21T18:23:45;10.70;98.20
43338;DHT22;28933;52.492;13.434;2024-02-21T18:26:31;10.70;98.20
43338;DHT22;28933;52.492;13.434;2024-02-21T18:29:18;10.60;98.30
43338;DHT22;28933;52.492;13.434;2024-02-21T18:32:04;10.60;98.30
43338;DHT22;28933;52.492;13.434;2024-02-21T18:34:50;10.50;98.40
43338;DHT22;28933;52.492;13.434;2024-02-21T18:37:36;10.50;98.50
43338;DHT22;28933;52.492;13.434;2024-02-21T18:40:22;10.50;98.60
43338;DHT22;28933;52.492;13.434;2024-02-21T18:43:08;10.50;98.70
43338;DHT22;28933;52.492;13.434;2024-02-21T18:45:55;10.40;98.70
43338;DHT22;28933;52.492;13.434;2024-02-21T18:48:42;10.40;98.80
43338;DHT22;28933;52.492;13.434;2024-02-21T18:51:31;10.40;98.90
43338;DHT22;28933;52.492;13.434;2024-02-21T18:54:17;10.40;98.90
43338;DHT22;28933;52.492;13.434;2024-02-21T18:57:03;10.40;99.00
43338;DHT22;28933;52.492;13.434;2024-02-21T18:59:49;10.40;99.00
43338;DHT22;28933;52.492;13.434;2024-02-21T19:02:35;10.40;99.10
43338;DHT22;28933;52.492;13.434;2024-02-21T19:05:21;10.40;99.10
43338;DHT22;28933;52.492;13.434;2024-02-21T19:08:07;10.40;99.20
43338;DHT22;28933;52.492;13.434;2024-02-21T19:10:53;10.40;99.20
43338;DHT22;28933;52.492;13.434;2024-02-21T19:13:39;10.40;99.30
43338;DHT22;28933;52.492;13.434;2024-02-21T19:16:25;10.30;99.30
43338;DHT22;28933;52.492;13.434;2024-02-21T19:19:12;10.40;99.40
43338;DHT22;28933;52.492;13.434;2024-02-21T19:21:58;10.30;99.40
43338;DHT22;28933;52.492;13.434;2024-02-21T19:24:44;10.40;99.50
43338;DHT22;28933;52.492;13.434;2024-02-21T19:27:30;10.40;99.50
43338;DHT22;28933;52.492;13.434;2024-02-21T19:30:16;10.40;99.50
43338;DHT22;28933;52.492;13.434;2024-02-21T19:33:03;10.40;99.60
43338;DHT22;28933;52.492;13.434;2024-02-21T19:35:49;10.40;99.60
43338;DHT22;28933;52.492;13.434;2024-02-21T19:38:35;10.40;99.60
43338;DHT22;28933;52.492;13.434;2024-02-21T19:41:21;10.40;99.70
43338;DHT22;28933;52.492;13.434;2024-02-21T19:44:07;10.50;99.70
43338;DHT22;28933;52.492;13.434;2024-02-21T19:46:53;10.40;99.70
43338;DHT22;28933;52.492;13.434;2024-02-21T19:49:39;10.40;99.80
43338;DHT22;28933;52.492;13.434;2024-02-21T19:52:27;10.40;99.80